TimeCST,TemperatureF,Dew PointF,Humidity,Sea Level PressureIn,VisibilityMPH,Wind Direction,Wind SpeedMPH,Gust SpeedMPH,PrecipitationIn,Events,Conditions,WindDirDegrees,DateUTC
12:53 AM,32.0,-0.9,24,30.41,10.0,SSW,6.9,-,N/A,,Clear,200,2012-12-21 06:53:00
1:53 AM,32.0,-0.9,24,30.39,10.0,South,4.6,-,N/A,,Clear,170,2012-12-21 07:53:00
2:53 AM,32.0,-0.9,24,30.38,10.0,SSW,4.6,-,N/A,,Clear,210,2012-12-21 08:53:00
3:53 AM,30.9,-0.9,26,30.38,10.0,SSE,6.9,-,N/A,,Clear,160,2012-12-21 09:53:00
4:53 AM,30.9,-2.0,24,30.35,10.0,South,9.2,-,N/A,,Clear,170,2012-12-21 10:53:00
5:53 AM,33.1,-4.0,20,30.34,10.0,South,5.8,-,N/A,,Clear,170,2012-12-21 11:53:00
6:53 AM,28.0,-2.0,27,30.38,10.0,South,9.2,-,N/A,,Clear,170,2012-12-21 12:53:00
7:53 AM,30.9,-4.0,22,30.38,10.0,SSE,10.4,-,N/A,,Clear,160,2012-12-21 13:53:00
8:53 AM,37.0,-2.9,18,30.36,10.0,SSE,9.2,-,N/A,,Clear,160,2012-12-21 14:53:00
9:53 AM,45.0,-0.9,15,30.37,10.0,SSE,9.2,-,N/A,,Clear,150,2012-12-21 15:53:00
10:53 AM,44.1,1.0,17,30.38,10.0,NNW,3.5,-,N/A,,Clear,340,2012-12-21 16:53:00
11:53 AM,53.1,-0.9,11,30.32,10.0,SSE,6.9,-,N/A,,Clear,150,2012-12-21 17:53:00
12:53 PM,55.9,-2.0,9,30.27,10.0,East,5.8,-,N/A,,Clear,90,2012-12-21 18:53:00
1:53 PM,57.0,-2.9,9,30.23,10.0,ESE,10.4,-,N/A,,Clear,110,2012-12-21 19:53:00
2:53 PM,57.0,-4.0,8,30.21,10.0,ESE,10.4,-,N/A,,Clear,120,2012-12-21 20:53:00
3:53 PM,57.0,-2.9,9,30.19,10.0,ESE,10.4,-,N/A,,Clear,110,2012-12-21 21:53:00
4:53 PM,55.9,-0.0,10,30.18,10.0,East,11.5,-,N/A,,Clear,100,2012-12-21 22:53:00
5:53 PM,52.0,1.0,12,30.19,10.0,SE,13.8,-,N/A,,Clear,130,2012-12-21 23:53:00
6:53 PM,48.9,1.9,15,30.21,10.0,SSE,16.1,-,N/A,,Clear,150,2012-12-22 00:53:00
7:53 PM,46.9,1.9,16,30.21,10.0,SSE,17.3,-,N/A,,Clear,160,2012-12-22 01:53:00
8:53 PM,45.0,3.0,18,30.21,10.0,SSE,16.1,23.0,N/A,,Clear,150,2012-12-22 02:53:00
9:53 PM,44.1,1.9,17,30.20,10.0,SSE,16.1,24.2,N/A,,Clear,160,2012-12-22 03:53:00
10:53 PM,42.1,1.9,19,30.22,10.0,SSE,13.8,-,N/A,,Clear,160,2012-12-22 04:53:00
11:53 PM,41.0,3.0,21,30.20,10.0,SSE,12.7,-,N/A,,Clear,160,2012-12-22 05:53:00